Time;durP1;ratioP1;P1;durP2;ratioP2;P2;SDS_P1;SDS_P2;PMS_P1;PMS_P2;Temp;Humidity;BMP_temperature;BMP_pressure;BME280_temperature;BME280_humidity;BME280_pressure;Samples;Min_cycle;Max_cycle;Signal;HPM_P1;HPM_P2
2023/06/05 00:02:22;;;;;;;2.05;1.30;;;;;;;11.99;47.73;100267.75;10514149;28;20423;-59
2023/06/05 00:07:24;;;;;;;4.35;1.30;;;;;;;12.00;47.73;100270.31;10513862;28;20059;-60
2023/06/05 00:12:26;;;;;;;3.25;1.52;;;;;;;11.97;47.78;100269.63;10514482;28;20589;-59
2023/06/05 00:17:30;;;;;;;1.80;1.23;;;;;;;11.87;48.02;100273.75;10512420;28;20059;-59
2023/06/05 00:22:33;;;;;;;1.27;1.15;;;;;;;11.81;48.09;100274.97;10513121;28;20414;-59
2023/06/05 00:27:35;;;;;;;2.88;1.42;;;;;;;11.72;48.59;100274.66;10513397;28;20110;-60
2023/06/05 00:32:37;;;;;;;3.05;1.40;;;;;;;11.64;48.66;100275.09;10512402;28;20051;-59
2023/06/05 00:37:39;;;;;;;1.92;1.20;;;;;;;11.67;48.60;100268.84;10512901;28;20048;-59
2023/06/05 00:42:41;;;;;;;2.63;1.38;;;;;;;11.46;48.80;100265.69;10508218;28;20621;-59
2023/06/05 00:47:43;;;;;;;2.08;1.30;;;;;;;11.39;49.10;100260.91;10512561;28;20048;-59
2023/06/05 00:52:46;;;;;;;1.58;1.30;;;;;;;11.36;49.15;100259.31;10509247;28;20040;-59
2023/06/05 00:57:48;;;;;;;2.20;1.65;;;;;;;11.25;49.37;100266.94;10510651;28;20555;-59
2023/06/05 01:02:53;;;;;;;1.90;1.30;;;;;;;11.18;49.35;100255.97;10510389;28;20079;-59
2023/06/05 01:07:55;;;;;;;2.10;1.50;;;;;;;11.13;49.64;100272.88;10544071;27;20044;-60
2023/06/05 01:13:00;;;;;;;2.58;1.40;;;;;;;11.05;50.63;100270.69;10511878;28;20052;-60
2023/06/05 01:18:02;;;;;;;2.50;1.30;;;;;;;11.01;50.18;100274.38;10493564;28;20054;-59
2023/06/05 01:23:06;;;;;;;2.97;1.30;;;;;;;10.97;50.24;100261.56;10512065;28;20050;-59
2023/06/05 01:28:10;;;;;;;1.80;1.33;;;;;;;10.84;50.57;100257.94;10510641;28;20052;-59
2023/06/05 01:33:17;;;;;;;2.35;1.30;;;;;;;10.71;50.79;100257.75;10511210;28;20039;-60
2023/06/05 01:38:21;;;;;;;1.55;1.15;;;;;;;10.61;50.94;100255.72;10509848;28;20040;-60
2023/06/05 01:43:23;;;;;;;1.95;1.42;;;;;;;10.31;51.40;100255.63;10491115;28;20067;-60
2023/06/05 01:48:30;;;;;;;2.58;1.42;;;;;;;10.40;51.47;100245.50;10510758;28;20043;-61
2023/06/05 01:53:31;;;;;;;1.67;1.17;;;;;;;10.40;51.48;100249.88;10509417;28;20044;-60
2023/06/05 01:58:33;;;;;;;1.25;0.98;;;;;;;10.46;51.35;100252.19;10505588;28;20044;-60
2023/06/05 02:03:35;;;;;;;2.20;1.23;;;;;;;10.45;51.37;100240.88;10510100;28;20141;-61
2023/06/05 02:08:37;;;;;;;1.50;1.15;;;;;;;10.35;52.01;100241.47;10500429;28;20526;-60
2023/06/05 02:13:40;;;;;;;4.00;1.50;;;;;;;10.26;51.96;100234.09;10512237;28;20175;-60
2023/06/05 02:18:42;;;;;;;1.83;1.17;;;;;;;10.31;51.78;100237.31;10513242;28;20045;-60
2023/06/05 02:23:45;;;;;;;2.30;1.15;;;;;;;10.25;52.17;100235.03;10515055;28;20063;-60
2023/06/05 02:28:47;;;;;;;2.33;1.20;;;;;;;10.18;52.54;100231.06;10515444;28;20146;-60
2023/06/05 02:33:49;;;;;;;3.63;1.30;;;;;;;10.12;52.33;100232.22;10513407;28;20287;-60
2023/06/05 02:38:52;;;;;;;1.83;1.20;;;;;;;9.99;52.51;100225.94;10515301;28;20048;-60
2023/06/05 02:43:55;;;;;;;2.72;1.13;;;;;;;9.94;52.66;100222.75;10479798;28;20056;-60
2023/06/05 02:48:57;;;;;;;2.42;1.45;;;;;;;9.96;52.59;100228.75;10508715;28;20051;-60
2023/06/05 02:54:00;;;;;;;1.42;1.08;;;;;;;9.95;52.50;100234.06;10510315;28;20044;-60
2023/06/05 02:59:03;;;;;;;2.22;1.27;;;;;;;9.89;52.52;100231.75;10519208;28;20497;-60
2023/06/05 03:04:08;;;;;;;2.47;1.40;;;;;;;9.81;52.60;100228.72;10517363;28;20048;-60
2023/06/05 03:09:12;;;;;;;1.92;1.35;;;;;;;9.76;53.00;100231.53;10511755;28;20052;-60
2023/06/05 03:14:14;;;;;;;2.28;1.40;;;;;;;9.76;53.02;100220.25;10514084;28;20036;-61
2023/06/05 03:19:16;;;;;;;2.35;1.20;;;;;;;9.65;53.28;100221.63;10492644;28;20492;-60
2023/06/05 03:24:19;;;;;;;1.88;1.27;;;;;;;9.71;53.13;100219.66;10513228;28;20044;-59
2023/06/05 03:29:27;;;;;;;2.30;1.40;;;;;;;9.74;53.06;100227.31;10512715;28;20040;-60
2023/06/05 03:34:29;;;;;;;2.85;1.45;;;;;;;9.62;53.32;100224.41;10513950;28;20048;-60
2023/06/05 03:39:35;;;;;;;1.90;1.30;;;;;;;9.63;53.28;100228.69;10530720;28;20796;-60
2023/06/05 03:44:38;;;;;;;1.10;1.00;;;;;;;9.65;53.43;100232.06;10512014;28;20138;-60
2023/06/05 03:49:45;;;;;;;1.48;1.10;;;;;;;9.59;53.49;100232.38;10514658;28;20138;-60
2023/06/05 03:54:54;;;;;;;1.67;1.30;;;;;;;9.76;53.22;100238.53;10493861;28;20050;-60
2023/06/05 03:59:56;;;;;;;2.33;1.20;;;;;;;9.90;52.89;100226.44;10513015;28;20036;-60
2023/06/05 04:04:58;;;;;;;1.77;1.10;;;;;;;10.02;52.95;100235.41;10511157;28;20480;-60
2023/06/05 04:10:00;;;;;;;1.75;1.20;;;;;;;10.30;53.13;100231.25;10509933;28;20482;-60
2023/06/05 04:15:03;;;;;;;2.60;1.40;;;;;;;12.40;50.04;100232.03;10511276;28;20399;-60
2023/06/05 04:20:09;;;;;;;1.80;1.30;;;;;;;14.52;46.52;100232.59;10512736;28;20458;-60
2023/06/05 04:25:12;;;;;;;1.58;1.15;;;;;;;16.22;43.69;100224.09;10512962;28;20411;-60
2023/06/05 04:30:15;;;;;;;2.42;1.30;;;;;;;17.83;41.38;100222.31;10510989;28;20115;-60
2023/06/05 04:35:17;;;;;;;1.58;1.20;;;;;;;19.05;39.18;100222.09;10510811;28;20048;-61
2023/06/05 04:40:20;;;;;;;1.80;1.20;;;;;;;19.95;37.62;100219.94;10511594;28;20089;-61
2023/06/05 04:45:24;;;;;;;2.00;1.40;;;;;;;20.70;36.33;100215.25;10510854;28;20133;-61
2023/06/05 04:50:28;;;;;;;2.67;1.30;;;;;;;21.72;35.17;100203.25;10509620;28;20139;-60
2023/06/05 04:55:40;;;;;;;1.75;1.17;;;;;;;22.52;33.74;100208.19;10508452;28;20392;-61
2023/06/05 05:00:45;;;;;;;1.98;1.20;;;;;;;23.14;32.68;100197.03;10509900;28;20528;-60
2023/06/05 05:05:47;;;;;;;1.90;1.30;;;;;;;23.61;31.73;100202.56;10507144;28;20496;-60
2023/06/05 05:10:49;;;;;;;1.98;1.20;;;;;;;24.14;30.97;100192.13;10509455;28;20551;-60
2023/06/05 05:15:52;;;;;;;1.27;1.10;;;;;;;24.21;30.60;100201.13;10510202;28;21007;-60
2023/06/05 05:20:55;;;;;;;1.77;1.27;;;;;;;24.43;29.87;100194.19;10508772;28;20054;-60
2023/06/05 05:25:57;;;;;;;2.25;1.17;;;;;;;24.40;29.09;100188.34;10476341;28;20044;-61
2023/06/05 05:31:00;;;;;;;1.65;1.10;;;;;;;21.81;31.23;100199.63;10509511;28;20048;-60
2023/06/05 05:36:05;;;;;;;1.92;1.10;;;;;;;19.82;33.58;100209.63;10506444;28;20495;-60
2023/06/05 05:41:08;;;;;;;1.42;1.00;;;;;;;18.44;35.29;100217.88;10506367;28;21160;-60
2023/06/05 05:46:10;;;;;;;1.38;1.00;;;;;;;17.63;36.61;100218.69;10510219;28;20056;-59
2023/06/05 05:51:12;;;;;;;2.78;1.40;;;;;;;17.25;37.50;100233.38;10506464;28;20044;-60
2023/06/05 05:56:15;;;;;;;1.50;1.10;;;;;;;16.94;38.47;100227.13;10508245;28;20044;-61
2023/06/05 06:01:17;;;;;;;2.00;1.08;;;;;;;16.87;38.87;100225.97;10506192;28;20044;-60
2023/06/05 06:06:20;;;;;;;1.52;1.00;;;;;;;16.73;39.39;100228.88;10506466;28;20328;-60
2023/06/05 06:11:21;;;;;;;1.73;1.05;;;;;;;16.60;40.22;100231.66;10507852;28;20044;-60
2023/06/05 06:16:23;;;;;;;1.88;1.15;;;;;;;16.76;40.20;100232.13;10507739;28;20051;-60
2023/06/05 06:21:25;;;;;;;1.23;1.00;;;;;;;16.73;40.12;100227.06;10506984;28;20042;-60
2023/06/05 06:26:27;;;;;;;2.30;1.25;;;;;;;16.90;39.41;100226.56;10507626;28;20052;-59
2023/06/05 06:31:29;;;;;;;1.80;1.30;;;;;;;17.37;38.80;100230.59;10513749;28;20171;-60
2023/06/05 06:36:33;;;;;;;1.45;1.00;;;;;;;17.39;37.92;100233.13;10514996;28;20452;-60
2023/06/05 06:41:35;;;;;;;1.80;1.20;;;;;;;17.64;37.60;100230.97;10516363;28;20051;-60
2023/06/05 06:46:37;;;;;;;1.63;1.10;;;;;;;17.87;37.26;100233.47;10509437;28;20295;-60
2023/06/05 06:51:39;;;;;;;1.85;0.90;;;;;;;18.42;36.27;100235.72;10503707;28;20052;-60
2023/06/05 06:56:42;;;;;;;1.23;1.00;;;;;;;18.85;35.37;100233.56;10508826;28;20507;-60
2023/06/05 07:01:45;;;;;;;3.00;1.10;;;;;;;19.50;34.40;100234.78;10507881;28;20040;-60
2023/06/05 07:06:47;;;;;;;2.33;1.30;;;;;;;19.84;33.77;100234.19;10510810;28;20155;-59
2023/06/05 07:11:50;;;;;;;1.83;1.08;;;;;;;20.85;33.68;100219.09;10510311;28;20047;-59
2023/06/05 07:16:56;;;;;;;1.75;1.13;;;;;;;22.89;31.03;100213.16;10506435;28;20506;-58
2023/06/05 07:22:01;;;;;;;2.40;1.17;;;;;;;23.93;30.15;100212.38;10504790;28;20040;-57
2023/06/05 07:27:03;;;;;;;4.32;1.02;;;;;;;24.46;29.83;100209.88;10512276;28;20044;-58
2023/06/05 07:32:06;;;;;;;1.00;0.93;;;;;;;25.30;27.77;100196.53;10511272;28;20234;-58
2023/06/05 07:37:08;;;;;;;2.35;1.10;;;;;;;25.12;28.13;100204.03;10509010;28;20580;-58
2023/06/05 07:42:10;;;;;;;1.63;1.00;;;;;;;25.91;27.87;100200.84;10507457;28;20047;-59
2023/06/05 07:47:13;;;;;;;2.08;1.20;;;;;;;26.18;25.90;100192.16;10506622;28;20056;-60
2023/06/05 07:52:15;;;;;;;1.35;1.00;;;;;;;26.65;26.10;100194.44;10501778;28;20192;-60
2023/06/05 07:57:17;;;;;;;2.60;1.20;;;;;;;26.82;25.63;100193.22;10507767;28;20574;-60
2023/06/05 08:02:19;;;;;;;2.30;1.15;;;;;;;26.32;25.99;100196.69;10505438;28;20048;-60
2023/06/05 08:07:21;;;;;;;2.20;1.10;;;;;;;26.87;24.87;100187.28;10509040;28;20093;-60
2023/06/05 08:12:23;;;;;;;3.63;1.30;;;;;;;26.69;25.23;100185.00;10509256;28;20056;-60
2023/06/05 08:17:27;;;;;;;1.88;1.23;;;;;;;26.66;25.47;100185.38;10510810;28;20062;-60
2023/06/05 08:22:29;;;;;;;1.25;0.90;;;;;;;27.40;24.85;100174.19;10507402;28;20040;-60
2023/06/05 08:27:31;;;;;;;3.72;1.10;;;;;;;27.98;24.05;100158.69;10511409;28;20056;-60
2023/06/05 08:32:33;;;;;;;1.75;1.00;;;;;;;27.27;24.12;100168.72;10505705;28;20048;-60
2023/06/05 08:37:35;;;;;;;1.77;1.20;;;;;;;26.58;23.29;100170.25;10511075;28;20056;-60
2023/06/05 08:42:40;;;;;;;1.48;1.13;;;;;;;26.30;23.84;100168.41;10506262;28;20071;-60
2023/06/05 08:47:44;;;;;;;1.55;1.08;;;;;;;26.76;23.32;100156.41;10508810;28;20044;-59
2023/06/05 08:52:49;;;;;;;1.88;1.20;;;;;;;27.04;23.66;100157.28;10502220;28;20086;-60
2023/06/05 08:57:52;;;;;;;1.17;1.00;;;;;;;27.72;23.04;100154.00;10504510;28;20135;-59
2023/06/05 09:02:54;;;;;;;1.02;0.93;;;;;;;27.27;23.08;100157.13;10498991;28;20055;-58
2023/06/05 09:07:56;;;;;;;2.28;1.23;;;;;;;27.44;22.90;100159.34;10508291;28;20481;-59
2023/06/05 09:13:02;;;;;;;2.03;1.40;;;;;;;26.76;23.52;100156.41;10503164;28;20039;-59
2023/06/05 09:18:09;;;;;;;2.17;1.30;;;;;;;26.48;23.65;100158.94;10508767;28;20056;-59
2023/06/05 09:23:26;;;;;;;1.92;1.10;;;;;;;26.78;22.36;100151.66;10503734;28;20050;-59
2023/06/05 09:28:30;;;;;;;1.30;1.00;;;;;;;26.96;22.86;100144.00;10504123;28;20610;-59
2023/06/05 09:33:34;;;;;;;1.17;0.90;;;;;;;27.25;23.29;100137.69;10499735;28;20392;-59
2023/06/05 09:38:38;;;;;;;2.70;1.20;;;;;;;27.29;22.53;100133.59;10506153;28;20056;-59
2023/06/05 09:43:41;;;;;;;1.25;1.00;;;;;;;26.63;23.39;100132.09;10501268;28;20040;-59
2023/06/05 09:48:52;;;;;;;1.63;1.20;;;;;;;26.57;22.44;100127.50;10506219;28;20056;-59
2023/06/05 09:53:57;;;;;;;1.92;1.20;;;;;;;26.76;23.40;100126.03;10497230;28;20028;-59
2023/06/05 09:59:01;;;;;;;1.27;0.85;;;;;;;26.96;22.38;100127.06;10504852;28;20048;-59
2023/06/05 10:04:08;;;;;;;2.25;1.20;;;;;;;27.27;22.60;100125.75;10510761;28;20048;-59
2023/06/05 10:09:11;;;;;;;1.58;0.90;;;;;;;27.00;22.79;100113.06;10505651;28;20044;-58
2023/06/05 10:14:15;;;;;;;1.25;1.00;;;;;;;26.91;23.05;100114.25;10482427;28;20500;-59
2023/06/05 10:19:19;;;;;;;1.17;1.00;;;;;;;27.25;22.63;100105.47;10507918;28;20048;-58
2023/06/05 10:24:31;;;;;;;1.92;1.23;;;;;;;27.46;22.35;100102.75;10499866;28;20960;-59
2023/06/05 10:29:51;;;;;;;1.05;0.90;;;;;;;27.25;21.94;100105.47;10497346;28;20408;-59
2023/06/05 10:35:15;;;;;;;2.75;1.08;;;;;;;26.69;21.35;100102.66;10501488;28;20844;-59
2023/06/05 10:40:18;;;;;;;1.58;0.98;;;;;;;26.12;22.79;100103.63;10499600;28;20653;-59
2023/06/05 10:45:31;;;;;;;1.88;1.17;;;;;;;25.92;22.66;100097.97;10505657;28;20420;-60
2023/06/05 10:50:33;;;;;;;2.70;1.20;;;;;;;25.44;23.09;100091.31;10497707;28;20333;-58
2023/06/05 10:55:42;;;;;;;1.30;1.00;;;;;;;25.44;22.42;100094.00;10499396;28;20416;-59
2023/06/05 11:01:22;;;;;;;1.45;1.00;;;;;;;25.31;22.01;100090.25;10496211;28;20044;-58
2023/06/05 11:06:25;;;;;;;1.77;1.00;;;;;;;25.12;22.84;100091.63;10416168;28;20631;-59
2023/06/05 11:11:27;;;;;;;1.45;1.00;;;;;;;25.34;22.96;100081.88;10478341;28;20059;-59
2023/06/05 11:16:31;;;;;;;1.80;1.10;;;;;;;25.14;22.50;100081.56;10501041;28;20694;-59
2023/06/05 11:22:09;;;;;;;1.48;1.00;;;;;;;25.18;21.28;100077.50;10493123;28;20055;-59
2023/06/05 11:27:42;;;;;;;2.60;1.17;;;;;;;25.19;22.49;100062.25;10490209;28;20059;-59
2023/06/05 11:32:44;;;;;;;1.98;1.25;;;;;;;25.42;22.53;100069.25;10500452;28;20064;-59
2023/06/05 11:37:48;;;;;;;1.45;1.00;;;;;;;25.55;22.66;100055.22;10509828;28;20523;-59
2023/06/05 11:43:06;;;;;;;1.48;0.90;;;;;;;25.89;22.12;100068.88;10499623;28;20190;-58
2023/06/05 11:48:12;;;;;;;1.45;1.00;;;;;;;25.52;21.76;100071.66;10509102;28;20047;-59
2023/06/05 11:53:14;;;;;;;2.20;1.00;;;;;;;25.32;21.77;100059.78;10501272;28;20047;-58
2023/06/05 11:58:27;;;;;;;1.23;1.10;;;;;;;25.29;21.52;100052.94;10507359;28;20060;-58
2023/06/05 12:03:29;;;;;;;1.45;0.95;;;;;;;25.51;21.72;100052.06;10504380;28;20048;-59
2023/06/05 12:08:33;;;;;;;1.80;1.20;;;;;;;25.38;21.58;100049.22;10508988;28;20059;-59
2023/06/05 12:13:57;;;;;;;1.67;1.05;;;;;;;25.43;20.58;100052.16;10503309;28;20048;-59
2023/06/05 12:19:10;;;;;;;1.70;1.10;;;;;;;25.27;21.39;100041.59;10509611;28;20040;-59
2023/06/05 12:24:27;;;;;;;1.60;1.00;;;;;;;25.29;19.13;100049.44;10505249;28;20086;-59
2023/06/05 12:29:33;;;;;;;2.17;1.20;;;;;;;25.44;20.62;100039.59;10504422;28;20047;-59
2023/06/05 12:34:38;;;;;;;1.17;1.00;;;;;;;25.55;19.73;100039.16;10494137;28;20112;-58
2023/06/05 12:39:59;;;;;;;2.03;1.15;;;;;;;25.47;20.72;100031.19;10490191;28;20589;-59
2023/06/05 12:45:01;;;;;;;1.55;0.95;;;;;;;25.69;20.33;100020.38;10502997;28;20483;-59
2023/06/05 12:50:05;;;;;;;1.48;1.02;;;;;;;26.11;20.23;100025.06;10500105;28;20048;-58
2023/06/05 12:55:08;;;;;;;2.97;1.27;;;;;;;25.91;19.85;100018.59;10504855;28;20158;-59
2023/06/05 13:00:12;;;;;;;2.50;1.05;;;;;;;26.04;20.57;100008.06;10493278;28;20515;-58
2023/06/05 13:05:15;;;;;;;2.20;1.25;;;;;;;26.12;19.59;100005.25;10503649;28;20582;-58
2023/06/05 13:10:17;;;;;;;1.33;0.82;;;;;;;25.82;20.43;100017.03;10502245;28;20052;-59
2023/06/05 13:15:19;;;;;;;1.42;0.90;;;;;;;25.66;19.97;100006.53;10505900;28;20071;-58
2023/06/05 13:20:21;;;;;;;1.15;0.95;;;;;;;25.93;20.52;100003.16;10500637;28;20063;-59
2023/06/05 13:25:23;;;;;;;1.00;0.90;;;;;;;26.10;20.32;99987.72;10508988;28;20044;-58
2023/06/05 13:30:25;;;;;;;1.27;0.90;;;;;;;26.25;20.24;99988.47;10496948;28;20327;-58
2023/06/05 13:35:27;;;;;;;1.48;1.00;;;;;;;26.19;19.83;99975.84;10502655;28;20055;-58
2023/06/05 13:40:31;;;;;;;2.67;1.30;;;;;;;25.98;20.38;99982.00;10496152;28;20044;-59
2023/06/05 13:45:35;;;;;;;1.50;1.10;;;;;;;26.01;20.26;99964.72;10502723;28;20071;-59
2023/06/05 13:50:45;;;;;;;2.53;1.35;;;;;;;25.84;20.57;99964.94;10497403;28;20519;-59
2023/06/05 13:55:47;;;;;;;2.75;1.23;;;;;;;26.08;20.73;99962.97;10504373;28;20051;-59
2023/06/05 14:00:49;;;;;;;1.70;1.10;;;;;;;25.88;20.85;99952.81;10496215;28;20515;-59
2023/06/05 14:05:52;;;;;;;1.65;1.00;;;;;;;26.30;21.26;99949.34;10505520;28;20436;-58
2023/06/05 14:10:54;;;;;;;3.78;1.20;;;;;;;26.04;20.30;99964.34;10499397;28;20059;-58
2023/06/05 14:15:56;;;;;;;2.25;1.00;;;;;;;25.94;20.71;99947.72;10506541;28;20487;-58
2023/06/05 14:20:58;;;;;;;1.75;1.08;;;;;;;26.10;21.18;99942.97;10497181;28;20559;-59
2023/06/05 14:25:59;;;;;;;2.97;1.20;;;;;;;26.30;20.88;99940.50;10506253;28;20047;-58
2023/06/05 14:31:01;;;;;;;2.30;1.23;;;;;;;26.61;20.70;99936.44;10498135;28;20350;-58
2023/06/05 14:36:04;;;;;;;2.45;1.13;;;;;;;26.40;20.68;99943.69;10502388;28;20044;-58
2023/06/05 14:41:06;;;;;;;1.38;0.90;;;;;;;26.14;20.65;99940.75;10498047;28;20044;-58
2023/06/05 14:46:08;;;;;;;1.25;0.95;;;;;;;26.28;20.81;99934.50;10502089;28;20048;-58
2023/06/05 14:51:10;;;;;;;2.00;1.10;;;;;;;25.88;20.35;99927.84;10500934;28;20044;-59
2023/06/05 14:56:12;;;;;;;2.10;0.93;;;;;;;25.84;20.79;99938.13;10513457;28;20055;-59
2023/06/05 15:01:14;;;;;;;2.33;0.93;;;;;;;25.87;20.94;99942.28;10500139;28;20216;-59
2023/06/05 15:06:16;;;;;;;1.42;1.02;;;;;;;25.83;20.68;99941.81;10512144;28;20048;-59
2023/06/05 15:11:25;;;;;;;2.40;1.10;;;;;;;26.15;20.85;99942.41;10503919;28;20055;-59
2023/06/05 15:16:28;;;;;;;3.13;1.25;;;;;;;26.31;20.86;99934.09;10510684;28;20080;-59
2023/06/05 15:21:43;;;;;;;1.17;0.90;;;;;;;26.39;20.70;99928.59;10504744;28;20404;-60
2023/06/05 15:26:45;;;;;;;1.27;1.00;;;;;;;26.04;20.17;99926.84;10509515;28;20048;-59
2023/06/05 15:31:47;;;;;;;2.33;1.33;;;;;;;25.96;20.53;99930.44;10501567;28;20139;-59
2023/06/05 15:36:50;;;;;;;1.50;1.08;;;;;;;25.99;20.03;99935.44;10509102;28;20614;-59
2023/06/05 15:41:53;;;;;;;2.15;0.90;;;;;;;26.00;20.06;99922.88;10502716;28;20064;-59
2023/06/05 15:47:03;;;;;;;1.58;1.08;;;;;;;25.78;20.46;99927.34;10508853;28;20036;-59
2023/06/05 15:52:09;;;;;;;2.20;1.20;;;;;;;25.71;20.22;99921.09;10503562;28;20154;-59
2023/06/05 15:57:12;;;;;;;1.55;1.10;;;;;;;25.67;19.54;99915.25;10509670;28;20563;-60
2023/06/05 16:02:15;;;;;;;2.10;1.23;;;;;;;25.84;19.61;99910.50;10502056;28;20048;-60
2023/06/05 16:07:17;;;;;;;1.90;1.17;;;;;;;25.83;20.03;99904.31;10501385;28;20529;-59
2023/06/05 16:12:20;;;;;;;1.95;1.20;;;;;;;25.94;20.37;99899.50;10494625;28;20566;-59
2023/06/05 16:17:23;;;;;;;1.95;1.20;;;;;;;25.79;19.83;99896.88;10508470;28;20048;-59
2023/06/05 16:22:25;;;;;;;1.27;0.93;;;;;;;25.57;20.02;99900.53;10503150;28;20040;-59
2023/06/05 16:27:28;;;;;;;2.58;1.40;;;;;;;25.43;19.97;99904.88;10509204;28;20048;-59
2023/06/05 16:32:35;;;;;;;1.45;0.80;;;;;;;25.38;20.54;99899.28;10503866;28;20048;-58
2023/06/05 16:37:37;;;;;;;2.22;1.30;;;;;;;25.40;20.58;99889.22;10510171;28;20052;-58
2023/06/05 16:42:39;;;;;;;2.17;1.10;;;;;;;25.19;20.28;99896.28;10502293;28;20048;-58
2023/06/05 16:47:42;;;;;;;2.15;1.10;;;;;;;25.40;20.97;99888.38;10507859;28;20056;-57
2023/06/05 16:52:44;;;;;;;3.08;1.17;;;;;;;25.37;20.80;99886.06;10502288;28;20036;-58
2023/06/05 16:57:48;;;;;;;2.17;1.10;;;;;;;25.22;20.90;99893.25;10505304;28;20419;-57
2023/06/05 17:02:50;;;;;;;1.73;1.10;;;;;;;25.00;21.30;99893.16;10494792;28;20052;-58
2023/06/05 17:07:53;;;;;;;1.60;0.98;;;;;;;24.88;20.92;99908.03;10507677;28;20105;-58
2023/06/05 17:12:55;;;;;;;1.65;1.05;;;;;;;24.74;21.11;99895.47;10479194;28;20051;-58
2023/06/05 17:17:57;;;;;;;2.00;1.20;;;;;;;24.76;21.29;99882.75;10507452;28;20052;-58
2023/06/05 17:23:01;;;;;;;2.47;1.10;;;;;;;24.80;21.49;99889.38;10492433;28;20048;-58
2023/06/05 17:28:03;;;;;;;1.65;1.02;;;;;;;24.73;21.66;99901.00;10502804;28;20048;-58
2023/06/05 17:33:05;;;;;;;1.15;0.93;;;;;;;24.81;21.72;99884.88;10492379;28;20306;-58
2023/06/05 17:38:07;;;;;;;1.60;1.10;;;;;;;24.70;22.00;99886.13;10497140;28;20043;-58
2023/06/05 17:43:10;;;;;;;1.33;0.95;;;;;;;24.46;21.88;99883.69;10485657;28;20113;-58
2023/06/05 17:48:12;;;;;;;2.13;1.20;;;;;;;24.62;21.97;99890.72;10503366;28;20044;-58
2023/06/05 17:53:16;;;;;;;1.92;1.20;;;;;;;24.43;21.96;99885.91;10491753;28;20593;-59
2023/06/05 17:58:18;;;;;;;1.52;1.05;;;;;;;24.27;22.24;99889.53;10505389;28;20075;-58
2023/06/05 18:03:21;;;;;;;5.20;1.20;;;;;;;24.21;21.92;99901.78;10492663;28;20040;-58
2023/06/05 18:08:23;;;;;;;2.50;1.20;;;;;;;24.10;22.30;99902.19;10497870;28;20050;-58
2023/06/05 18:13:25;;;;;;;1.73;1.10;;;;;;;24.10;22.30;99904.06;10501313;28;20047;-58
2023/06/05 18:18:27;;;;;;;1.85;1.15;;;;;;;24.06;23.09;99894.72;10504409;28;20055;-59
2023/06/05 18:23:30;;;;;;;1.77;1.13;;;;;;;23.89;23.16;99904.69;10505308;28;20044;-58
2023/06/05 18:28:32;;;;;;;2.03;1.15;;;;;;;23.81;23.28;99904.72;10511041;28;20842;-58
2023/06/05 18:33:34;;;;;;;1.50;1.08;;;;;;;23.56;23.54;99903.22;10513738;28;20040;-61
2023/06/05 18:38:36;;;;;;;1.98;1.10;;;;;;;23.45;23.92;99909.75;10503726;28;20041;-58
2023/06/05 18:43:39;;;;;;;2.75;1.15;;;;;;;23.32;24.06;99905.97;10503138;28;20083;-58
2023/06/05 18:48:42;;;;;;;3.10;1.20;;;;;;;23.20;24.51;99916.19;10494346;28;20847;-58
2023/06/05 18:53:44;;;;;;;1.95;1.25;;;;;;;22.99;24.74;99910.59;10494980;28;20054;-58
2023/06/05 18:58:46;;;;;;;2.80;1.40;;;;;;;22.75;25.18;99923.16;10508152;28;20052;-58
2023/06/05 19:03:48;;;;;;;1.83;1.10;;;;;;;22.53;25.45;99932.66;10498408;28;20245;-58
2023/06/05 19:08:50;;;;;;;2.38;1.20;;;;;;;22.31;26.08;99923.47;10500963;28;20229;-58
2023/06/05 19:13:52;;;;;;;2.90;1.08;;;;;;;22.05;26.39;99927.31;10494179;28;20036;-59
2023/06/05 19:18:53;;;;;;;2.17;1.10;;;;;;;21.88;26.79;99934.41;10508743;28;20028;-59
2023/06/05 19:23:55;;;;;;;2.10;1.20;;;;;;;21.67;27.47;99931.38;10500898;28;20051;-59
2023/06/05 19:28:58;;;;;;;2.78;1.30;;;;;;;21.41;28.10;99939.44;10504662;28;20052;-59
2023/06/05 19:34:00;;;;;;;3.33;1.33;;;;;;;21.15;28.88;99938.59;10500522;28;20598;-59
2023/06/05 19:39:02;;;;;;;1.98;1.17;;;;;;;20.98;28.99;99943.03;10506702;28;20044;-59
2023/06/05 19:44:05;;;;;;;2.08;1.17;;;;;;;20.78;29.28;99949.56;10513029;28;20048;-59
2023/06/05 19:49:08;;;;;;;4.88;1.75;;;;;;;20.53;29.92;99947.66;10494496;28;20048;-59
2023/06/05 19:54:10;;;;;;;3.95;1.75;;;;;;;20.35;30.29;99956.63;10511683;28;20059;-58
2023/06/05 19:59:12;;;;;;;2.92;1.65;;;;;;;20.15;30.88;99961.28;10510035;28;20040;-59
2023/06/05 20:04:14;;;;;;;2.90;1.50;;;;;;;19.60;31.85;99970.28;10513619;28;20062;-58
2023/06/05 20:09:16;;;;;;;3.38;2.00;;;;;;;18.95;32.91;99977.31;10511420;28;20372;-59
2023/06/05 20:14:18;;;;;;;2.72;1.80;;;;;;;18.71;33.03;99992.06;10510983;28;20359;-59
2023/06/05 20:19:20;;;;;;;2.30;1.50;;;;;;;18.72;33.33;99996.34;10509269;28;20426;-59
2023/06/05 20:24:22;;;;;;;4.20;2.08;;;;;;;18.75;33.56;99991.59;10512889;28;20423;-59
2023/06/05 20:29:24;;;;;;;2.55;1.63;;;;;;;18.60;33.96;99996.53;10512181;28;20518;-60
2023/06/05 20:34:26;;;;;;;2.47;1.60;;;;;;;18.30;34.89;100004.59;10511400;28;20046;-60
2023/06/05 20:39:30;;;;;;;2.90;1.77;;;;;;;18.30;35.09;100001.13;10511849;28;20419;-59
2023/06/05 20:44:38;;;;;;;2.53;1.60;;;;;;;18.11;35.11;100003.72;10506632;28;20043;-59
2023/06/05 20:49:41;;;;;;;2.38;1.42;;;;;;;17.84;35.66;100017.59;10509187;28;20151;-59
2023/06/05 20:54:43;;;;;;;2.55;1.50;;;;;;;17.85;35.91;100014.00;10504247;28;20575;-59
2023/06/05 20:59:47;;;;;;;4.47;1.73;;;;;;;17.84;36.62;100012.31;10508748;28;20112;-60
2023/06/05 21:04:50;;;;;;;3.45;1.90;;;;;;;17.78;36.58;100023.44;10510949;28;20060;-59
2023/06/05 21:09:51;;;;;;;2.75;1.60;;;;;;;17.57;36.93;100023.50;10507982;28;20043;-60
2023/06/05 21:14:53;;;;;;;3.47;1.50;;;;;;;17.11;37.61;100017.84;10508545;28;20051;-59
2023/06/05 21:19:55;;;;;;;2.53;1.50;;;;;;;16.97;37.91;100021.66;10506579;28;20043;-60
2023/06/05 21:24:57;;;;;;;1.60;1.20;;;;;;;16.88;38.28;100018.94;10504333;28;20040;-59
2023/06/05 21:29:59;;;;;;;1.98;1.25;;;;;;;16.86;38.59;100028.78;10507044;28;20412;-59
2023/06/05 21:35:01;;;;;;;2.10;1.33;;;;;;;16.52;39.15;100032.56;10505005;28;20048;-59
2023/06/05 21:40:03;;;;;;;1.63;1.15;;;;;;;16.08;39.62;100033.56;10501438;28;20131;-59
2023/06/05 21:45:06;;;;;;;2.20;1.40;;;;;;;16.06;39.87;100033.66;10507345;28;20527;-59
2023/06/05 21:50:08;;;;;;;2.15;1.30;;;;;;;16.14;40.06;100036.50;10504323;28;20629;-59
2023/06/05 21:55:10;;;;;;;2.33;1.20;;;;;;;16.13;40.30;100037.47;10506771;28;20048;-59
2023/06/05 22:00:13;;;;;;;1.75;1.20;;;;;;;16.09;40.23;100038.69;10506750;28;20054;-59
2023/06/05 22:05:15;;;;;;;2.08;1.20;;;;;;;16.00;40.63;100034.16;10503840;28;20496;-59
2023/06/05 22:10:17;;;;;;;2.10;1.20;;;;;;;15.88;41.06;100042.19;10508094;28;20321;-59
2023/06/05 22:15:19;;;;;;;1.45;1.10;;;;;;;15.59;41.82;100041.03;10507672;28;20044;-59
2023/06/05 22:20:25;;;;;;;3.75;1.50;;;;;;;15.48;41.91;100044.50;10508356;28;20044;-59
2023/06/05 22:25:27;;;;;;;2.15;1.33;;;;;;;15.51;42.07;100040.81;10489495;28;20068;-59
2023/06/05 22:30:44;;;;;;;2.72;1.40;;;;;;;15.43;42.48;100051.91;10508444;28;20737;-59
2023/06/05 22:35:46;;;;;;;1.77;1.30;;;;;;;15.22;43.23;100050.94;10507411;28;20052;-58
2023/06/05 22:40:48;;;;;;;2.13;1.23;;;;;;;15.04;43.16;100049.72;10504445;28;20044;-59
2023/06/05 22:45:50;;;;;;;2.22;1.42;;;;;;;15.05;43.44;100054.00;10507539;28;20463;-59
2023/06/05 22:50:53;;;;;;;2.67;1.30;;;;;;;14.99;43.51;100054.47;10506571;28;20128;-59
2023/06/05 22:55:55;;;;;;;2.00;1.33;;;;;;;14.93;43.75;100053.16;10507119;28;20048;-59
2023/06/05 23:00:57;;;;;;;3.50;1.45;;;;;;;14.98;43.76;100058.91;10506127;28;20526;-60
2023/06/05 23:06:00;;;;;;;4.57;1.40;;;;;;;15.04;43.89;100058.44;10508596;28;20103;-59
2023/06/05 23:11:03;;;;;;;2.20;1.50;;;;;;;14.90;44.27;100055.19;10507311;28;20076;-59
2023/06/05 23:16:05;;;;;;;1.88;1.27;;;;;;;15.01;44.11;100056.06;10512895;28;20047;-59
2023/06/05 23:21:07;;;;;;;3.55;1.42;;;;;;;14.98;44.08;100058.09;10507888;28;20060;-59